createdAt,value
2019-01-16T00:00:37.619Z,77.34
2019-01-16T00:03:30.617Z,77.14
2019-01-16T00:06:19.941Z,77.32
2019-01-16T00:09:10.142Z,77.46
2019-01-16T00:12:06.711Z,77.12
2019-01-16T00:14:47.525Z,77.85
2019-01-16T00:17:35.992Z,77.29
2019-01-16T00:20:31.359Z,78.09
2019-01-16T00:23:14.222Z,77.73
2019-01-16T00:26:02.478Z,77.87
2019-01-16T00:28:50.684Z,78.05
2019-01-16T00:31:49.278Z,78.32
2019-01-16T00:34:47.394Z,77.63
2019-01-16T00:37:34.105Z,78.37
2019-01-16T00:40:27.469Z,77.80
2019-01-16T00:43:22.418Z,78.06
2019-01-16T00:46:05.783Z,78.17
2019-01-16T00:48:42.794Z,78.60
2019-01-16T00:51:42.579Z,79.49
2019-01-16T00:54:34.470Z,79.23
2019-01-16T00:57:33.104Z,79.52
2019-01-16T01:00:16.658Z,79.16
2019-01-16T01:03:16.963Z,79.40
2019-01-16T01:06:04.981Z,79.63
2019-01-16T01:08:52.366Z,80.04
2019-01-16T01:11:48.015Z,79.54
2019-01-16T01:14:34.692Z,79.08
2019-01-16T01:17:26.969Z,78.49
2019-01-16T01:20:21.095Z,79.31
2019-01-16T01:23:16.877Z,78.68
2019-01-16T01:26:09.549Z,79.00
2019-01-16T01:28:58.478Z,79.37
2019-01-16T01:31:57.003Z,79.18
2019-01-16T01:34:39.130Z,79.55
2019-01-16T01:37:18.775Z,79.27
2019-01-16T01:40:13.992Z,79.28
2019-01-16T01:43:02.179Z,79.32
2019-01-16T01:45:42.356Z,80.31
2019-01-16T01:48:24.068Z,79.98
2019-01-16T01:51:19.564Z,80.44
2019-01-16T01:53:57.361Z,80.39
2019-01-16T01:56:45.474Z,80.22
2019-01-16T01:59:25.889Z,80.71
2019-01-16T02:02:11.795Z,79.93
2019-01-16T02:04:55.743Z,80.60
2019-01-16T02:07:41.850Z,80.52
2019-01-16T02:10:37.509Z,80.87
2019-01-16T02:13:34.993Z,80.93
2019-01-16T02:16:24.677Z,80.60
2019-01-16T02:19:09.162Z,80.32
2019-01-16T02:22:05.542Z,80.48
2019-01-16T02:25:04.887Z,81.06
2019-01-16T02:28:03.210Z,81.27
2019-01-16T02:30:51.545Z,81.76
2019-01-16T02:33:50.060Z,81.35
2019-01-16T02:36:27.587Z,81.06
2019-01-16T02:39:09.674Z,80.81
2019-01-16T02:41:57.704Z,80.56
2019-01-16T02:44:40.037Z,80.91
2019-01-16T02:47:24.044Z,80.29
2019-01-16T02:50:05.058Z,80.65
2019-01-16T02:52:53.078Z,81.05
2019-01-16T02:55:48.487Z,81.40
2019-01-16T02:58:28.339Z,81.28
2019-01-16T03:01:16.225Z,81.52
2019-01-16T03:04:02.291Z,81.90
2019-01-16T03:06:51.025Z,82.37
2019-01-16T03:09:40.603Z,82.83
2019-01-16T03:12:24.368Z,82.81
2019-01-16T03:15:25.646Z,84.15
2019-01-16T03:18:13.571Z,85.11
2019-01-16T03:20:57.904Z,85.53
2019-01-16T03:23:47.387Z,85.76
2019-01-16T03:26:33.472Z,86.62
2019-01-16T03:29:33.031Z,87.23
2019-01-16T03:32:28.343Z,87.76
2019-01-16T03:35:16.551Z,87.95
2019-01-16T03:38:05.901Z,88.61
2019-01-16T03:40:56.297Z,88.77
2019-01-16T03:43:45.411Z,89.58
2019-01-16T03:46:24.452Z,89.93
2019-01-16T03:49:13.733Z,90.92
2019-01-16T03:52:17.708Z,90.93
2019-01-16T03:55:05.430Z,91.36
2019-01-16T03:57:58.064Z,91.92
2019-01-16T04:00:50.711Z,92.10
2019-01-16T04:03:35.848Z,92.63
2019-01-16T04:06:24.148Z,93.23
2019-01-16T04:09:06.892Z,93.23
2019-01-16T04:11:51.237Z,93.04
2019-01-16T04:14:43.660Z,93.15
2019-01-16T04:17:42.015Z,92.80
2019-01-16T04:20:18.297Z,92.73
2019-01-16T04:23:25.878Z,91.60
2019-01-16T04:26:15.034Z,91.12
2019-01-16T04:28:56.119Z,90.60
2019-01-16T04:31:32.485Z,89.90
2019-01-16T04:34:21.670Z,89.86
2019-01-16T04:37:12.676Z,89.07
2019-01-16T04:39:58.569Z,89.39
2019-01-16T04:42:53.968Z,89.02
2019-01-16T04:45:33.577Z,89.07
2019-01-16T04:48:21.488Z,88.48
2019-01-16T04:51:05.691Z,87.98
2019-01-16T04:54:10.531Z,87.98
2019-01-16T04:57:06.055Z,88.13
2019-01-16T04:59:55.532Z,88.01
2019-01-16T05:02:43.576Z,87.62
2019-01-16T05:05:28.434Z,87.64
2019-01-16T05:08:26.946Z,87.39
2019-01-16T05:11:22.021Z,87.83
2019-01-16T05:14:17.536Z,87.23
2019-01-16T05:17:05.506Z,87.62
2019-01-16T05:19:54.805Z,87.48
2019-01-16T05:22:47.172Z,87.42
2019-01-16T05:25:24.260Z,87.33
2019-01-16T05:28:15.898Z,87.32
2019-01-16T05:31:11.411Z,87.50
2019-01-16T05:33:58.836Z,87.75
2019-01-16T05:36:47.076Z,87.97
2019-01-16T05:39:42.420Z,88.83
2019-01-16T05:42:24.195Z,88.76
2019-01-16T05:45:31.966Z,88.93
2019-01-16T05:48:24.036Z,88.71
2019-01-16T05:51:07.541Z,89.15
2019-01-16T05:54:07.112Z,89.27
2019-01-16T05:57:00.257Z,89.36
2019-01-16T06:00:09.619Z,89.47
2019-01-16T06:03:10.722Z,89.57
2019-01-16T06:05:58.730Z,89.60
2019-01-16T06:08:46.911Z,89.83
2019-01-16T06:11:42.228Z,89.46
2019-01-16T06:14:31.387Z,89.55
2019-01-16T06:17:22.260Z,89.59
2019-01-16T06:20:26.665Z,89.96
2019-01-16T06:23:27.966Z,89.87
2019-01-16T06:26:17.184Z,90.29
2019-01-16T06:29:05.484Z,92.18
2019-01-16T06:31:54.613Z,90.90
2019-01-16T06:34:53.050Z,90.96
2019-01-16T06:37:34.789Z,91.59
2019-01-16T06:40:24.688Z,91.77
2019-01-16T06:43:16.973Z,92.24
2019-01-16T06:46:09.111Z,92.63
2019-01-16T06:48:59.128Z,92.94
2019-01-16T06:51:35.718Z,93.51
2019-01-16T06:54:18.225Z,93.86
2019-01-16T06:56:59.620Z,93.99
2019-01-16T06:59:53.948Z,93.93
2019-01-16T07:02:46.160Z,94.27
2019-01-16T07:05:50.441Z,94.18
2019-01-16T07:08:38.175Z,94.26
2019-01-16T07:11:19.492Z,94.10
2019-01-16T07:14:26.798Z,94.21
2019-01-16T07:17:19.161Z,95.04
2019-01-16T07:20:14.278Z,94.87
2019-01-16T07:23:06.861Z,95.08
2019-01-16T07:26:02.102Z,94.53
2019-01-16T07:28:57.478Z,95.08
2019-01-16T07:31:47.026Z,94.65
2019-01-16T07:34:35.406Z,94.62
2019-01-16T07:37:38.135Z,94.51
2019-01-16T07:40:35.466Z,94.07
2019-01-16T07:43:24.971Z,93.23
2019-01-16T07:46:17.099Z,93.03
2019-01-16T07:48:55.107Z,93.03
2019-01-16T07:51:43.522Z,92.96
2019-01-16T07:54:35.767Z,92.86
2019-01-16T07:57:40.197Z,92.52
2019-01-16T08:00:31.047Z,92.13
2019-01-16T08:03:26.426Z,92.08
2019-01-16T08:06:22.190Z,91.55
2019-01-16T08:09:17.960Z,91.44
2019-01-16T08:12:19.414Z,91.19
2019-01-16T08:15:07.678Z,90.68
2019-01-16T08:18:02.906Z,88.05
2019-01-16T08:20:44.878Z,76.35
2019-01-16T08:23:32.118Z,83.19
2019-01-16T08:26:20.123Z,85.31
2019-01-16T08:29:08.342Z,85.80
2019-01-16T08:32:12.429Z,86.12
2019-01-16T08:35:00.268Z,86.58
2019-01-16T08:38:02.106Z,85.98
2019-01-16T08:40:50.083Z,85.70
2019-01-16T08:43:38.442Z,85.80
2019-01-16T08:46:31.135Z,84.15
2019-01-16T08:49:32.518Z,84.25
2019-01-16T08:52:21.855Z,83.79
2019-01-16T08:55:17.380Z,83.45
2019-01-16T08:58:21.675Z,82.68
2019-01-16T09:01:16.789Z,82.23
2019-01-16T09:04:06.193Z,82.29
2019-01-16T09:06:58.559Z,82.09
2019-01-16T09:10:00.780Z,82.51
2019-01-16T09:12:50.132Z,81.59
2019-01-16T09:15:39.486Z,83.29
2019-01-16T09:18:38.197Z,83.09
2019-01-16T09:21:26.471Z,68.59
2019-01-16T09:24:17.626Z,75.21
2019-01-16T09:27:09.990Z,78.50
2019-01-16T09:30:00.727Z,79.65
2019-01-16T09:32:41.130Z,79.08
2019-01-16T09:35:42.677Z,80.23
2019-01-16T09:38:34.849Z,80.47
2019-01-16T09:41:17.235Z,79.46
2019-01-16T09:44:06.561Z,79.31
2019-01-16T09:46:53.732Z,74.71
2019-01-16T09:49:46.140Z,77.28
2019-01-16T09:52:27.065Z,77.20
2019-01-16T09:55:16.201Z,77.37
2019-01-16T09:57:59.026Z,78.65
2019-01-16T10:00:40.603Z,77.81
2019-01-16T10:03:40.318Z,76.95
2019-01-16T10:06:29.700Z,76.41
2019-01-16T10:09:18.151Z,75.82
2019-01-16T10:12:07.676Z,75.89
2019-01-16T10:14:58.626Z,76.48
2019-01-16T10:17:46.653Z,75.80
2019-01-16T10:20:45.837Z,75.34
2019-01-16T10:23:28.383Z,75.56
2019-01-16T10:26:20.716Z,75.03
2019-01-16T10:29:09.174Z,74.94
2019-01-16T10:32:08.647Z,74.42
2019-01-16T10:34:53.786Z,73.75
2019-01-16T10:37:58.242Z,74.87
2019-01-16T10:40:45.361Z,72.61
2019-01-16T10:43:47.124Z,72.35
2019-01-16T10:46:35.011Z,72.21
2019-01-16T10:49:23.154Z,72.91
2019-01-16T10:52:04.165Z,72.94
2019-01-16T10:55:02.882Z,72.13
2019-01-16T10:57:55.615Z,71.98
2019-01-16T11:00:57.077Z,71.19
2019-01-16T11:03:52.075Z,71.27
2019-01-16T11:06:46.983Z,71.61
2019-01-16T11:09:42.692Z,70.87
2019-01-16T11:12:34.799Z,71.32
2019-01-16T11:15:24.064Z,70.47
2019-01-16T11:18:28.544Z,71.94
2019-01-16T11:21:28.534Z,70.91
2019-01-16T11:24:23.643Z,70.62
2019-01-16T11:27:15.802Z,70.09
2019-01-16T11:30:05.089Z,68.49
2019-01-16T11:33:03.176Z,69.54
2019-01-16T11:35:49.946Z,68.48
2019-01-16T11:38:34.980Z,68.66
2019-01-16T11:41:23.284Z,68.20
2019-01-16T11:44:11.488Z,67.69
2019-01-16T11:46:56.690Z,68.21
2019-01-16T11:49:44.797Z,68.15
2019-01-16T11:52:36.096Z,67.70
2019-01-16T11:55:24.173Z,68.60
2019-01-16T11:58:12.527Z,67.75
2019-01-16T12:00:57.839Z,66.71
2019-01-16T12:03:53.473Z,66.82
2019-01-16T12:06:33.542Z,67.61
2019-01-16T12:09:30.234Z,68.32
2019-01-16T12:12:17.972Z,66.99
2019-01-16T12:15:05.524Z,67.50
2019-01-16T12:17:57.660Z,68.09
2019-01-16T12:20:54.106Z,67.39
2019-01-16T12:24:01.827Z,67.07
2019-01-16T12:27:02.559Z,65.81
2019-01-16T12:29:52.630Z,65.38
2019-01-16T12:32:41.207Z,64.06
2019-01-16T12:35:33.564Z,65.57
2019-01-16T12:38:20.789Z,65.97
2019-01-16T12:41:19.231Z,65.77
2019-01-16T12:44:01.403Z,66.27
2019-01-16T12:46:42.618Z,64.96
2019-01-16T12:49:30.564Z,65.90
2019-01-16T12:52:13.429Z,65.57
2019-01-16T12:55:08.825Z,65.35
2019-01-16T12:57:58.149Z,66.56
2019-01-16T13:00:46.186Z,64.96
2019-01-16T13:03:29.956Z,65.00
2019-01-16T13:06:12.968Z,65.65
2019-01-16T13:09:00.529Z,66.74
2019-01-16T13:12:08.097Z,66.09
2019-01-16T13:15:00.381Z,65.53
2019-01-16T13:17:52.242Z,66.23
2019-01-16T13:20:59.922Z,65.72
2019-01-16T13:23:47.380Z,65.83
2019-01-16T13:26:32.226Z,65.64
2019-01-16T13:29:37.530Z,67.22
2019-01-16T13:32:23.896Z,64.78
2019-01-16T13:35:13.191Z,64.77
2019-01-16T13:38:01.550Z,64.94
2019-01-16T13:40:40.056Z,64.31
2019-01-16T13:43:27.366Z,63.83
2019-01-16T13:46:19.653Z,64.22
2019-01-16T13:49:08.972Z,65.30
2019-01-16T13:52:04.288Z,65.71
2019-01-16T13:54:52.693Z,65.36
2019-01-16T13:57:43.028Z,64.25
2019-01-16T14:00:41.713Z,63.99
2019-01-16T14:03:33.943Z,63.32
2019-01-16T14:06:33.151Z,64.10
2019-01-16T14:09:35.038Z,64.94
2019-01-16T14:12:23.202Z,63.95
2019-01-16T14:15:11.413Z,64.06
2019-01-16T14:18:00.641Z,63.59
2019-01-16T14:20:56.087Z,64.32
2019-01-16T14:23:57.378Z,64.79
2019-01-16T14:26:45.589Z,64.35
2019-01-16T14:29:33.681Z,65.43
2019-01-16T14:32:15.501Z,64.74
2019-01-16T14:35:03.514Z,65.01
2019-01-16T14:37:51.745Z,65.63
2019-01-16T14:40:44.791Z,65.86
2019-01-16T14:43:30.940Z,64.84
2019-01-16T14:46:23.069Z,64.98
2019-01-16T14:49:12.304Z,64.80
2019-01-16T14:52:10.843Z,65.01
2019-01-16T14:54:58.994Z,64.47
2019-01-16T14:57:47.233Z,64.45
2019-01-16T15:00:46.182Z,64.82
2019-01-16T15:03:34.158Z,65.01
2019-01-16T15:06:23.341Z,64.91
2019-01-16T15:09:15.773Z,65.61
2019-01-16T15:12:14.155Z,65.71
2019-01-16T15:15:03.378Z,66.02
2019-01-16T15:17:51.226Z,65.59
2019-01-16T15:20:39.565Z,65.85
2019-01-16T15:23:27.558Z,66.76
2019-01-16T15:26:08.165Z,67.36
2019-01-16T15:29:09.593Z,67.05
2019-01-16T15:31:58.001Z,67.85
2019-01-16T15:34:47.501Z,68.38
2019-01-16T15:37:40.136Z,68.03
2019-01-16T15:40:30.756Z,68.94
2019-01-16T15:43:38.475Z,69.36
2019-01-16T15:46:36.877Z,69.05
2019-01-16T15:49:38.291Z,69.38
2019-01-16T15:52:30.654Z,68.34
2019-01-16T15:55:28.906Z,68.25
2019-01-16T15:58:15.100Z,68.57
2019-01-16T16:01:08.557Z,69.22
2019-01-16T16:03:57.860Z,69.51
2019-01-16T16:06:53.554Z,69.23
2019-01-16T16:09:36.174Z,69.42
2019-01-16T16:12:17.130Z,69.37
2019-01-16T16:15:01.186Z,69.26
2019-01-16T16:17:42.593Z,70.03
2019-01-16T16:20:43.324Z,70.14
2019-01-16T16:23:40.359Z,70.01
2019-01-16T16:26:24.244Z,70.70
2019-01-16T16:29:12.109Z,70.65
2019-01-16T16:31:58.881Z,70.23
2019-01-16T16:34:47.118Z,69.74
2019-01-16T16:37:35.406Z,69.62
2019-01-16T16:40:32.985Z,70.23
2019-01-16T16:43:28.167Z,70.80
2019-01-16T16:46:04.667Z,70.34
2019-01-16T16:49:00.215Z,70.79
2019-01-16T16:51:49.521Z,70.75
2019-01-16T16:54:53.977Z,68.98
2019-01-16T16:57:49.129Z,70.16
2019-01-16T17:00:41.493Z,70.89
2019-01-16T17:03:31.117Z,70.82
2019-01-16T17:06:18.984Z,72.10
2019-01-16T17:08:58.612Z,66.01
2019-01-16T17:12:03.390Z,68.41
2019-01-16T17:14:46.866Z,69.64
2019-01-16T17:17:34.947Z,69.42
2019-01-16T17:20:19.032Z,69.85
2019-01-16T17:23:11.470Z,69.43
2019-01-16T17:26:11.085Z,69.66
2019-01-16T17:28:58.908Z,69.86
2019-01-16T17:31:56.997Z,69.03
2019-01-16T17:34:39.157Z,70.60
2019-01-16T17:37:28.482Z,68.39
2019-01-16T17:40:26.859Z,68.78
2019-01-16T17:43:11.851Z,69.19
2019-01-16T17:45:59.756Z,69.31
2019-01-16T17:48:48.077Z,69.40
2019-01-16T17:51:36.194Z,69.66
2019-01-16T17:54:25.292Z,68.98
2019-01-16T17:57:17.576Z,69.42
2019-01-16T18:00:09.881Z,69.39
2019-01-16T18:03:02.056Z,67.39
2019-01-16T18:05:56.101Z,67.89
2019-01-16T18:08:57.532Z,66.52
2019-01-16T18:11:55.895Z,67.84
2019-01-16T18:15:00.709Z,66.40
2019-01-16T18:17:48.525Z,66.54
2019-01-16T18:20:27.860Z,68.62
2019-01-16T18:23:15.703Z,68.80
2019-01-16T18:26:10.930Z,68.68
2019-01-16T18:29:19.373Z,68.82
2019-01-16T18:32:08.651Z,69.61
2019-01-16T18:35:12.864Z,71.28
2019-01-16T18:37:55.339Z,70.07
2019-01-16T18:40:43.408Z,70.31
2019-01-16T18:43:31.757Z,69.79
2019-01-16T18:46:13.030Z,69.02
2019-01-16T18:49:02.108Z,69.59
2019-01-16T18:51:50.244Z,69.11
2019-01-16T18:54:38.441Z,69.76
2019-01-16T18:57:46.823Z,68.54
2019-01-16T19:00:39.042Z,67.79
2019-01-16T19:03:33.158Z,68.13
2019-01-16T19:06:21.398Z,69.01
2019-01-16T19:09:00.683Z,69.47
2019-01-16T19:11:55.990Z,69.82
2019-01-16T19:14:45.295Z,69.75
2019-01-16T19:17:33.518Z,70.89
2019-01-16T19:20:20.725Z,70.54
2019-01-16T19:23:22.880Z,70.09
2019-01-16T19:26:07.878Z,70.65
2019-01-16T19:28:55.753Z,70.62
2019-01-16T19:31:51.109Z,69.99
2019-01-16T19:34:31.647Z,69.98
2019-01-16T19:37:36.566Z,70.32
2019-01-16T19:40:38.744Z,70.06
2019-01-16T19:43:37.395Z,66.98
2019-01-16T19:46:25.659Z,67.96
2019-01-16T19:49:22.626Z,67.21
2019-01-16T19:52:17.913Z,68.64
2019-01-16T19:55:04.007Z,66.96
2019-01-16T19:57:52.340Z,67.21
2019-01-16T20:00:40.782Z,67.62
2019-01-16T20:03:38.864Z,66.54
2019-01-16T20:06:47.042Z,66.13
2019-01-16T20:09:45.111Z,66.37
2019-01-16T20:12:26.243Z,65.17
2019-01-16T20:15:04.794Z,65.76
2019-01-16T20:18:00.380Z,64.40
2019-01-16T20:20:48.659Z,64.16
2019-01-16T20:23:35.754Z,64.60
2019-01-16T20:26:23.996Z,64.51
2019-01-16T20:29:09.785Z,65.02
2019-01-16T20:31:51.483Z,64.48
2019-01-16T20:34:32.031Z,64.48
2019-01-16T20:37:39.760Z,64.73
2019-01-16T20:40:40.336Z,65.10
2019-01-16T20:43:18.758Z,65.43
2019-01-16T20:46:18.715Z,65.91
2019-01-16T20:49:02.693Z,66.56
2019-01-16T20:51:44.880Z,65.70
2019-01-16T20:54:37.273Z,65.25
2019-01-16T20:57:35.886Z,65.93
2019-01-16T21:00:36.659Z,66.33
2019-01-16T21:03:24.751Z,66.39
2019-01-16T21:06:15.081Z,66.77
2019-01-16T21:09:10.252Z,67.32
2019-01-16T21:11:58.286Z,66.83
2019-01-16T21:14:52.395Z,67.00
2019-01-16T21:17:52.415Z,66.79
2019-01-16T21:20:47.925Z,67.54
2019-01-16T21:23:36.061Z,67.40
2019-01-16T21:26:32.698Z,67.98
2019-01-16T21:29:15.290Z,68.31
2019-01-16T21:32:10.763Z,68.41
2019-01-16T21:34:56.255Z,68.98
2019-01-16T21:37:42.658Z,69.41
2019-01-16T21:40:34.929Z,69.88
2019-01-16T21:43:23.294Z,70.55
2019-01-16T21:46:11.564Z,71.21
2019-01-16T21:49:03.450Z,70.58
2019-01-16T21:51:45.206Z,71.32
2019-01-16T21:54:36.564Z,70.93
2019-01-16T21:57:38.008Z,71.19
2019-01-16T22:00:30.502Z,71.63
2019-01-16T22:03:29.161Z,71.58
2019-01-16T22:06:36.771Z,71.83
2019-01-16T22:09:17.848Z,72.16
2019-01-16T22:12:19.002Z,72.25
2019-01-16T22:15:23.483Z,73.16
2019-01-16T22:18:11.032Z,73.09
2019-01-16T22:21:03.196Z,72.21
2019-01-16T22:23:48.930Z,72.59
2019-01-16T22:26:41.563Z,72.06
2019-01-16T22:29:34.090Z,72.30
2019-01-16T22:32:29.327Z,71.56
2019-01-16T22:35:24.341Z,71.22
2019-01-16T22:38:16.620Z,72.01
2019-01-16T22:41:16.393Z,72.66
2019-01-16T22:44:08.595Z,73.26
2019-01-16T22:46:57.016Z,73.64
2019-01-16T22:49:55.606Z,74.07
2019-01-16T22:52:45.083Z,74.59
2019-01-16T22:55:33.302Z,75.00
2019-01-16T22:58:21.901Z,73.88
2019-01-16T23:01:15.853Z,75.03
2019-01-16T23:03:58.195Z,74.34
2019-01-16T23:06:47.326Z,75.33
2019-01-16T23:09:26.644Z,75.21
2019-01-16T23:12:29.902Z,75.71
2019-01-16T23:15:27.677Z,76.54
2019-01-16T23:18:29.502Z,77.06
2019-01-16T23:21:09.233Z,76.70
2019-01-16T23:24:10.470Z,76.94
2019-01-16T23:26:49.663Z,77.22
2019-01-16T23:29:33.355Z,77.00
2019-01-16T23:32:12.450Z,77.75
2019-01-16T23:35:13.918Z,77.09
2019-01-16T23:38:21.776Z,77.01
2019-01-16T23:41:26.069Z,77.01
2019-01-16T23:44:13.953Z,77.50
2019-01-16T23:46:58.023Z,77.92
2019-01-16T23:49:40.031Z,78.65
2019-01-16T23:52:32.500Z,77.37
2019-01-16T23:55:30.240Z,77.59
2019-01-16T23:58:19.697Z,78.47
